Aérodrome :
LOGIN :

S'inscrire | Disclaimer

   EN    FR    IT 

 










Légende :    VFR   VFR Marginal   IFR   IFR Intensif   IFR Très Intensif
Visi : 
Plafond : 
>= 8 km
>= 3000ft
5 à 8 km
1000 à 3000 ft
1500m à 5 km
500 à 1000 ft
800 à 1500m
200 à 500 ft
< 800m
< 200 ft
Symboles :   Orages  Brouillard  Fortes neiges  Fortes précipitations  Vent > 20 kt
SIGMETs :   Divers  Orages  Givrage  Turbulence  Onde Orograph.  Cendres Volcan.







- Altitude de l'aérodrome : 1017 ft
- Voir les cartes d'approche


LFSL - Brive Souillac

DERNIER METAR :
  • 291300Z AUTO 19005KT 150V250 CAVOK 26/10 Q1016 BECMG SCT080TCU BKN130

METARs EXPIRÉS :
  • 291230Z AUTO 20007KT 160V260 CAVOK 26/09 Q1015 BECMG SCT080TCU BKN130
  • 291200Z AUTO VRB04KT CAVOK 26/09 Q1016 NOSIG
  • 291130Z AUTO VRB04KT CAVOK 26/09 Q1016 NOSIG
  • 291100Z AUTO 22004KT 170V290 CAVOK 25/09 Q1016 NOSIG
  • 291030Z AUTO 21004KT 160V310 CAVOK 25/09 Q1016 NOSIG

TAF TAF LFSL
Valide du 29 à 12h jusqu'au 29 à 21h UTC


291100Z 2912/2921 20005KT CAVOK
BECMG 2914/2916 SCT080TCU BKN130
BECMG 2916/2918 BKN060 FEW080CB OVC120
PROB40
TEMPO 2917/2921 TSRA
PROB30
TEMPO 2918/2921 VRB20G30KT 3000
Pas de NOTAMs connus pour ce terrain.
1 SIGMET publié pour la FIR Bordeaux (LFBB) :
 
Orages noyés dans la masse
LFBB SIGMET 7 VALID 291050/291300 LFPW
LFBB BORDEAUX FIR/UIR EMBD TS OBS S OF N4400 AND W OF W00030 TOP FL360 MOV N 30KT NC=



MET'MAP, la Météo Aéronautique d'un coup d'oeil ! - Copyright ORBIFLY Décembre 2007 - Disclaimer

ORBIFLY MET'MAP TEAM :

Programmation & Développement : Alexandra Zaïnal
Conception & Développement : Baudouin d'Aumeries
Co-Programmation & Développement : Marc-Olivier Méhu
Soutien technique & logistique : Manuel Goepfert

Contact : metmap@orbifly.com




SOURCES & CREDITS :

   NOAA